sensor_id;sensor_type;location;lat;lon;timestamp;P1;durP1;ratioP1;P2;durP2;ratioP2
61389;SDS011;47260;48.274;19.814;2022-08-05T00:01:12;5.30;;;4.80;;
61389;SDS011;47260;48.274;19.814;2022-08-05T00:03:39;5.53;;;5.03;;
61389;SDS011;47260;48.274;19.814;2022-08-05T00:06:07;5.78;;;4.88;;
61389;SDS011;47260;48.274;19.814;2022-08-05T00:08:35;5.38;;;4.85;;
61389;SDS011;47260;48.274;19.814;2022-08-05T00:11:04;5.53;;;5.03;;
61389;SDS011;47260;48.274;19.814;2022-08-05T00:13:33;8.00;;;5.30;;
61389;SDS011;47260;48.274;19.814;2022-08-05T00:16:00;7.20;;;5.20;;
61389;SDS011;47260;48.274;19.814;2022-08-05T00:18:28;7.00;;;5.40;;
61389;SDS011;47260;48.274;19.814;2022-08-05T00:20:55;6.00;;;5.50;;
61389;SDS011;47260;48.274;19.814;2022-08-05T00:23:21;8.63;;;5.60;;
61389;SDS011;47260;48.274;19.814;2022-08-05T00:25:50;6.25;;;5.13;;
61389;SDS011;47260;48.274;19.814;2022-08-05T00:28:17;6.93;;;5.80;;
61389;SDS011;47260;48.274;19.814;2022-08-05T00:30:44;6.70;;;6.10;;
61389;SDS011;47260;48.274;19.814;2022-08-05T00:33:11;6.68;;;5.38;;
61389;SDS011;47260;48.274;19.814;2022-08-05T00:35:38;7.32;;;5.43;;
61389;SDS011;47260;48.274;19.814;2022-08-05T00:38:05;7.45;;;5.65;;
61389;SDS011;47260;48.274;19.814;2022-08-05T00:40:32;6.22;;;5.20;;
61389;SDS011;47260;48.274;19.814;2022-08-05T00:43:00;5.90;;;5.30;;
61389;SDS011;47260;48.274;19.814;2022-08-05T00:45:30;5.85;;;5.25;;
61389;SDS011;47260;48.274;19.814;2022-08-05T00:47:57;5.70;;;5.07;;
61389;SDS011;47260;48.274;19.814;2022-08-05T00:50:24;5.38;;;4.90;;
61389;SDS011;47260;48.274;19.814;2022-08-05T00:52:50;5.15;;;4.65;;
61389;SDS011;47260;48.274;19.814;2022-08-05T00:55:17;6.22;;;5.50;;
61389;SDS011;47260;48.274;19.814;2022-08-05T00:57:44;6.53;;;5.15;;
61389;SDS011;47260;48.274;19.814;2022-08-05T01:00:12;7.93;;;5.47;;
61389;SDS011;47260;48.274;19.814;2022-08-05T01:02:39;6.00;;;5.40;;
61389;SDS011;47260;48.274;19.814;2022-08-05T01:05:06;7.70;;;5.13;;
61389;SDS011;47260;48.274;19.814;2022-08-05T01:07:33;9.43;;;5.05;;
61389;SDS011;47260;48.274;19.814;2022-08-05T01:10:00;6.22;;;5.63;;
61389;SDS011;47260;48.274;19.814;2022-08-05T01:12:28;6.38;;;5.88;;
61389;SDS011;47260;48.274;19.814;2022-08-05T01:14:56;7.38;;;6.57;;
61389;SDS011;47260;48.274;19.814;2022-08-05T01:19:59;5.57;;;5.05;;
61389;SDS011;47260;48.274;19.814;2022-08-05T01:22:38;6.22;;;5.72;;
61389;SDS011;47260;48.274;19.814;2022-08-05T01:25:28;6.07;;;5.43;;
61389;SDS011;47260;48.274;19.814;2022-08-05T01:28:12;6.80;;;6.20;;
61389;SDS011;47260;48.274;19.814;2022-08-05T01:30:43;6.30;;;5.70;;
61389;SDS011;47260;48.274;19.814;2022-08-05T01:33:16;7.15;;;5.55;;
61389;SDS011;47260;48.274;19.814;2022-08-05T01:35:45;6.55;;;4.80;;
61389;SDS011;47260;48.274;19.814;2022-08-05T01:38:14;6.95;;;6.25;;
61389;SDS011;47260;48.274;19.814;2022-08-05T01:40:43;9.85;;;6.50;;
61389;SDS011;47260;48.274;19.814;2022-08-05T01:43:13;7.28;;;5.55;;
61389;SDS011;47260;48.274;19.814;2022-08-05T01:45:42;6.07;;;5.28;;
61389;SDS011;47260;48.274;19.814;2022-08-05T01:48:09;11.73;;;5.80;;
61389;SDS011;47260;48.274;19.814;2022-08-05T01:50:37;6.35;;;5.75;;
61389;SDS011;47260;48.274;19.814;2022-08-05T01:53:07;6.18;;;5.60;;
61389;SDS011;47260;48.274;19.814;2022-08-05T01:55:37;8.63;;;6.05;;
61389;SDS011;47260;48.274;19.814;2022-08-05T01:58:06;5.80;;;5.30;;
61389;SDS011;47260;48.274;19.814;2022-08-05T02:00:37;7.20;;;6.05;;
61389;SDS011;47260;48.274;19.814;2022-08-05T02:03:08;5.88;;;5.30;;
61389;SDS011;47260;48.274;19.814;2022-08-05T02:05:37;7.53;;;5.85;;
61389;SDS011;47260;48.274;19.814;2022-08-05T02:08:07;6.65;;;5.95;;
61389;SDS011;47260;48.274;19.814;2022-08-05T02:10:35;7.20;;;6.60;;
61389;SDS011;47260;48.274;19.814;2022-08-05T02:13:10;6.85;;;6.05;;
61389;SDS011;47260;48.274;19.814;2022-08-05T02:15:42;6.57;;;5.97;;
61389;SDS011;47260;48.274;19.814;2022-08-05T02:18:13;7.00;;;6.00;;
61389;SDS011;47260;48.274;19.814;2022-08-05T02:20:46;5.90;;;5.30;;
61389;SDS011;47260;48.274;19.814;2022-08-05T02:23:18;6.85;;;5.90;;
61389;SDS011;47260;48.274;19.814;2022-08-05T02:25:47;7.97;;;5.73;;
61389;SDS011;47260;48.274;19.814;2022-08-05T02:28:18;6.75;;;5.97;;
61389;SDS011;47260;48.274;19.814;2022-08-05T02:30:52;5.97;;;5.38;;
61389;SDS011;47260;48.274;19.814;2022-08-05T02:33:21;6.38;;;5.45;;
61389;SDS011;47260;48.274;19.814;2022-08-05T02:35:51;6.07;;;5.47;;
61389;SDS011;47260;48.274;19.814;2022-08-05T02:38:20;7.68;;;5.65;;
61389;SDS011;47260;48.274;19.814;2022-08-05T02:40:48;6.45;;;5.78;;
61389;SDS011;47260;48.274;19.814;2022-08-05T02:43:16;5.95;;;5.35;;
61389;SDS011;47260;48.274;19.814;2022-08-05T02:45:44;7.00;;;6.25;;
61389;SDS011;47260;48.274;19.814;2022-08-05T02:48:14;7.05;;;5.93;;
61389;SDS011;47260;48.274;19.814;2022-08-05T02:50:42;8.38;;;6.25;;
61389;SDS011;47260;48.274;19.814;2022-08-05T02:53:14;7.47;;;6.10;;
61389;SDS011;47260;48.274;19.814;2022-08-05T02:55:42;8.25;;;6.45;;
61389;SDS011;47260;48.274;19.814;2022-08-05T02:58:11;7.07;;;6.30;;
61389;SDS011;47260;48.274;19.814;2022-08-05T03:00:40;6.47;;;5.87;;
61389;SDS011;47260;48.274;19.814;2022-08-05T03:03:10;7.68;;;6.68;;
61389;SDS011;47260;48.274;19.814;2022-08-05T03:05:41;6.45;;;5.80;;
61389;SDS011;47260;48.274;19.814;2022-08-05T03:08:08;6.75;;;6.05;;
61389;SDS011;47260;48.274;19.814;2022-08-05T03:10:36;6.60;;;5.68;;
61389;SDS011;47260;48.274;19.814;2022-08-05T03:13:10;7.13;;;6.43;;
61389;SDS011;47260;48.274;19.814;2022-08-05T03:15:40;6.47;;;5.55;;
61389;SDS011;47260;48.274;19.814;2022-08-05T03:18:07;6.18;;;5.63;;
61389;SDS011;47260;48.274;19.814;2022-08-05T03:20:34;6.53;;;5.97;;
61389;SDS011;47260;48.274;19.814;2022-08-05T03:23:02;6.88;;;6.22;;
61389;SDS011;47260;48.274;19.814;2022-08-05T03:25:31;6.40;;;5.80;;
61389;SDS011;47260;48.274;19.814;2022-08-05T03:27:58;7.20;;;6.05;;
61389;SDS011;47260;48.274;19.814;2022-08-05T03:30:27;8.15;;;6.45;;
61389;SDS011;47260;48.274;19.814;2022-08-05T03:32:56;7.07;;;6.30;;
61389;SDS011;47260;48.274;19.814;2022-08-05T03:35:23;7.00;;;6.30;;
61389;SDS011;47260;48.274;19.814;2022-08-05T03:37:50;7.60;;;6.90;;
61389;SDS011;47260;48.274;19.814;2022-08-05T03:40:19;7.35;;;6.60;;
61389;SDS011;47260;48.274;19.814;2022-08-05T03:42:45;7.18;;;6.43;;
61389;SDS011;47260;48.274;19.814;2022-08-05T03:45:12;7.03;;;6.35;;
61389;SDS011;47260;48.274;19.814;2022-08-05T03:47:39;6.70;;;6.10;;
61389;SDS011;47260;48.274;19.814;2022-08-05T03:50:06;6.78;;;6.18;;
61389;SDS011;47260;48.274;19.814;2022-08-05T03:52:34;7.18;;;6.50;;
61389;SDS011;47260;48.274;19.814;2022-08-05T03:55:07;7.35;;;6.63;;
61389;SDS011;47260;48.274;19.814;2022-08-05T03:57:38;7.55;;;6.55;;
61389;SDS011;47260;48.274;19.814;2022-08-05T04:00:09;8.98;;;6.13;;
61389;SDS011;47260;48.274;19.814;2022-08-05T04:02:37;7.05;;;5.90;;
61389;SDS011;47260;48.274;19.814;2022-08-05T04:05:08;7.45;;;6.65;;
61389;SDS011;47260;48.274;19.814;2022-08-05T04:07:35;7.47;;;6.65;;
61389;SDS011;47260;48.274;19.814;2022-08-05T04:10:04;8.82;;;6.38;;
61389;SDS011;47260;48.274;19.814;2022-08-05T04:12:31;8.77;;;7.65;;
61389;SDS011;47260;48.274;19.814;2022-08-05T04:15:00;8.73;;;6.43;;
61389;SDS011;47260;48.274;19.814;2022-08-05T04:17:27;7.45;;;6.03;;
61389;SDS011;47260;48.274;19.814;2022-08-05T04:19:54;7.25;;;5.93;;
61389;SDS011;47260;48.274;19.814;2022-08-05T04:22:21;6.32;;;5.68;;
61389;SDS011;47260;48.274;19.814;2022-08-05T04:24:47;8.35;;;5.20;;
61389;SDS011;47260;48.274;19.814;2022-08-05T04:27:15;6.72;;;5.15;;
61389;SDS011;47260;48.274;19.814;2022-08-05T04:29:41;5.43;;;4.82;;
61389;SDS011;47260;48.274;19.814;2022-08-05T04:32:09;5.75;;;4.95;;
61389;SDS011;47260;48.274;19.814;2022-08-05T04:34:36;6.55;;;5.20;;
61389;SDS011;47260;48.274;19.814;2022-08-05T04:37:03;6.95;;;5.15;;
61389;SDS011;47260;48.274;19.814;2022-08-05T04:39:30;9.75;;;5.20;;
61389;SDS011;47260;48.274;19.814;2022-08-05T04:41:58;5.55;;;5.07;;
61389;SDS011;47260;48.274;19.814;2022-08-05T04:44:25;5.53;;;5.03;;
61389;SDS011;47260;48.274;19.814;2022-08-05T04:46:52;6.75;;;5.40;;
61389;SDS011;47260;48.274;19.814;2022-08-05T04:49:20;5.55;;;5.10;;
61389;SDS011;47260;48.274;19.814;2022-08-05T04:51:47;5.53;;;4.63;;
61389;SDS011;47260;48.274;19.814;2022-08-05T04:54:14;5.82;;;5.07;;
61389;SDS011;47260;48.274;19.814;2022-08-05T04:56:40;5.15;;;4.65;;
61389;SDS011;47260;48.274;19.814;2022-08-05T04:59:07;5.35;;;4.85;;
61389;SDS011;47260;48.274;19.814;2022-08-05T05:01:34;5.20;;;4.70;;
61389;SDS011;47260;48.274;19.814;2022-08-05T05:04:00;7.28;;;4.20;;
61389;SDS011;47260;48.274;19.814;2022-08-05T05:06:29;5.38;;;4.93;;
61389;SDS011;47260;48.274;19.814;2022-08-05T05:08:55;6.43;;;5.00;;
61389;SDS011;47260;48.274;19.814;2022-08-05T05:11:22;5.57;;;5.05;;
61389;SDS011;47260;48.274;19.814;2022-08-05T05:13:49;5.82;;;4.60;;
61389;SDS011;47260;48.274;19.814;2022-08-05T05:16:15;5.22;;;4.72;;
61389;SDS011;47260;48.274;19.814;2022-08-05T05:18:42;7.43;;;4.93;;
61389;SDS011;47260;48.274;19.814;2022-08-05T05:21:09;5.63;;;5.03;;
61389;SDS011;47260;48.274;19.814;2022-08-05T05:23:37;5.78;;;5.25;;
61389;SDS011;47260;48.274;19.814;2022-08-05T05:26:04;5.10;;;4.70;;
61389;SDS011;47260;48.274;19.814;2022-08-05T05:28:31;5.78;;;4.75;;
61389;SDS011;47260;48.274;19.814;2022-08-05T05:30:57;5.25;;;4.75;;
61389;SDS011;47260;48.274;19.814;2022-08-05T05:33:24;5.28;;;4.28;;
61389;SDS011;47260;48.274;19.814;2022-08-05T05:35:51;6.70;;;4.72;;
61389;SDS011;47260;48.274;19.814;2022-08-05T05:38:18;5.82;;;5.07;;
61389;SDS011;47260;48.274;19.814;2022-08-05T05:40:46;5.70;;;4.68;;
61389;SDS011;47260;48.274;19.814;2022-08-05T05:43:13;5.70;;;4.70;;
61389;SDS011;47260;48.274;19.814;2022-08-05T05:45:40;5.22;;;4.72;;
61389;SDS011;47260;48.274;19.814;2022-08-05T05:48:07;6.18;;;4.82;;
61389;SDS011;47260;48.274;19.814;2022-08-05T05:50:33;6.10;;;4.97;;
61389;SDS011;47260;48.274;19.814;2022-08-05T05:53:03;6.70;;;4.47;;
61389;SDS011;47260;48.274;19.814;2022-08-05T05:55:30;5.43;;;4.93;;
61389;SDS011;47260;48.274;19.814;2022-08-05T05:57:58;6.82;;;4.53;;
61389;SDS011;47260;48.274;19.814;2022-08-05T06:00:25;6.03;;;4.80;;
61389;SDS011;47260;48.274;19.814;2022-08-05T06:02:52;5.05;;;4.22;;
61389;SDS011;47260;48.274;19.814;2022-08-05T06:05:19;5.90;;;4.30;;
61389;SDS011;47260;48.274;19.814;2022-08-05T06:07:45;5.60;;;5.07;;
61389;SDS011;47260;48.274;19.814;2022-08-05T06:10:14;4.65;;;4.25;;
61389;SDS011;47260;48.274;19.814;2022-08-05T06:12:41;4.13;;;3.83;;
61389;SDS011;47260;48.274;19.814;2022-08-05T06:15:09;6.35;;;4.20;;
61389;SDS011;47260;48.274;19.814;2022-08-05T06:17:36;5.47;;;4.18;;
61389;SDS011;47260;48.274;19.814;2022-08-05T06:20:03;6.60;;;4.03;;
61389;SDS011;47260;48.274;19.814;2022-08-05T06:22:31;4.15;;;3.75;;
61389;SDS011;47260;48.274;19.814;2022-08-05T06:24:59;6.25;;;3.78;;
61389;SDS011;47260;48.274;19.814;2022-08-05T06:27:26;4.57;;;3.63;;
61389;SDS011;47260;48.274;19.814;2022-08-05T06:29:53;5.80;;;3.72;;
61389;SDS011;47260;48.274;19.814;2022-08-05T06:32:21;4.07;;;3.67;;
61389;SDS011;47260;48.274;19.814;2022-08-05T06:34:48;5.05;;;4.20;;
61389;SDS011;47260;48.274;19.814;2022-08-05T06:37:15;5.45;;;3.78;;
61389;SDS011;47260;48.274;19.814;2022-08-05T06:39:41;4.25;;;3.85;;
61389;SDS011;47260;48.274;19.814;2022-08-05T06:42:08;4.22;;;3.92;;
61389;SDS011;47260;48.274;19.814;2022-08-05T06:44:35;4.25;;;3.85;;
61389;SDS011;47260;48.274;19.814;2022-08-05T06:47:02;5.57;;;4.07;;
61389;SDS011;47260;48.274;19.814;2022-08-05T06:49:30;4.95;;;3.55;;
61389;SDS011;47260;48.274;19.814;2022-08-05T06:51:57;4.30;;;3.92;;
61389;SDS011;47260;48.274;19.814;2022-08-05T06:54:23;4.75;;;3.60;;
61389;SDS011;47260;48.274;19.814;2022-08-05T06:56:50;6.00;;;3.97;;
61389;SDS011;47260;48.274;19.814;2022-08-05T06:59:17;3.85;;;3.50;;
61389;SDS011;47260;48.274;19.814;2022-08-05T07:01:44;4.05;;;3.53;;
61389;SDS011;47260;48.274;19.814;2022-08-05T07:04:11;3.67;;;3.20;;
61389;SDS011;47260;48.274;19.814;2022-08-05T07:06:39;4.38;;;3.22;;
61389;SDS011;47260;48.274;19.814;2022-08-05T07:09:05;4.95;;;2.97;;
61389;SDS011;47260;48.274;19.814;2022-08-05T07:11:32;3.33;;;3.03;;
61389;SDS011;47260;48.274;19.814;2022-08-05T07:13:59;6.57;;;3.33;;
61389;SDS011;47260;48.274;19.814;2022-08-05T07:16:44;3.25;;;2.90;;
61389;SDS011;47260;48.274;19.814;2022-08-05T07:19:18;3.35;;;3.05;;
61389;SDS011;47260;48.274;19.814;2022-08-05T07:21:48;4.82;;;3.70;;
61389;SDS011;47260;48.274;19.814;2022-08-05T07:24:15;4.07;;;2.90;;
61389;SDS011;47260;48.274;19.814;2022-08-05T07:26:43;4.88;;;3.15;;
61389;SDS011;47260;48.274;19.814;2022-08-05T07:29:10;9.02;;;3.08;;
61389;SDS011;47260;48.274;19.814;2022-08-05T07:31:37;4.10;;;3.70;;
61389;SDS011;47260;48.274;19.814;2022-08-05T07:34:05;4.25;;;3.22;;
61389;SDS011;47260;48.274;19.814;2022-08-05T07:36:32;6.43;;;3.08;;
61389;SDS011;47260;48.274;19.814;2022-08-05T07:39:01;4.38;;;3.22;;
61389;SDS011;47260;48.274;19.814;2022-08-05T07:43:57;3.63;;;3.00;;
61389;SDS011;47260;48.274;19.814;2022-08-05T07:46:24;3.45;;;3.15;;
61389;SDS011;47260;48.274;19.814;2022-08-05T07:48:53;6.05;;;3.30;;
61389;SDS011;47260;48.274;19.814;2022-08-05T07:51:20;3.58;;;3.08;;
61389;SDS011;47260;48.274;19.814;2022-08-05T07:53:47;4.55;;;3.55;;
61389;SDS011;47260;48.274;19.814;2022-08-05T07:56:15;5.60;;;3.42;;
61389;SDS011;47260;48.274;19.814;2022-08-05T07:58:42;3.95;;;2.75;;
61389;SDS011;47260;48.274;19.814;2022-08-05T08:01:09;3.92;;;3.53;;
61389;SDS011;47260;48.274;19.814;2022-08-05T08:03:35;3.53;;;3.22;;
61389;SDS011;47260;48.274;19.814;2022-08-05T08:06:02;4.15;;;3.75;;
61389;SDS011;47260;48.274;19.814;2022-08-05T08:08:29;3.72;;;3.13;;
61389;SDS011;47260;48.274;19.814;2022-08-05T08:10:56;3.38;;;3.00;;
61389;SDS011;47260;48.274;19.814;2022-08-05T08:13:24;2.92;;;2.72;;
61389;SDS011;47260;48.274;19.814;2022-08-05T08:15:51;4.28;;;2.92;;
61389;SDS011;47260;48.274;19.814;2022-08-05T08:18:18;3.53;;;3.10;;
61389;SDS011;47260;48.274;19.814;2022-08-05T08:20:45;3.67;;;3.35;;
61389;SDS011;47260;48.274;19.814;2022-08-05T08:23:13;3.63;;;2.88;;
61389;SDS011;47260;48.274;19.814;2022-08-05T08:25:42;4.27;;;2.50;;
61389;SDS011;47260;48.274;19.814;2022-08-05T08:28:09;3.22;;;2.70;;
61389;SDS011;47260;48.274;19.814;2022-08-05T08:30:37;3.75;;;2.28;;
61389;SDS011;47260;48.274;19.814;2022-08-05T08:33:07;3.25;;;2.08;;
61389;SDS011;47260;48.274;19.814;2022-08-05T08:35:35;2.22;;;2.03;;
61389;SDS011;47260;48.274;19.814;2022-08-05T08:38:02;4.28;;;2.30;;
61389;SDS011;47260;48.274;19.814;2022-08-05T08:40:29;2.35;;;2.13;;
61389;SDS011;47260;48.274;19.814;2022-08-05T08:42:58;2.57;;;2.47;;
61389;SDS011;47260;48.274;19.814;2022-08-05T08:45:25;3.17;;;2.70;;
61389;SDS011;47260;48.274;19.814;2022-08-05T08:47:54;4.75;;;2.90;;
61389;SDS011;47260;48.274;19.814;2022-08-05T08:50:21;2.67;;;2.47;;
61389;SDS011;47260;48.274;19.814;2022-08-05T08:52:49;4.90;;;2.70;;
61389;SDS011;47260;48.274;19.814;2022-08-05T08:55:19;3.10;;;2.70;;
61389;SDS011;47260;48.274;19.814;2022-08-05T08:57:46;2.75;;;2.60;;
61389;SDS011;47260;48.274;19.814;2022-08-05T09:00:14;3.67;;;3.25;;
61389;SDS011;47260;48.274;19.814;2022-08-05T09:02:41;3.03;;;2.83;;
61389;SDS011;47260;48.274;19.814;2022-08-05T09:05:11;2.88;;;2.67;;
61389;SDS011;47260;48.274;19.814;2022-08-05T09:07:38;4.80;;;2.63;;
61389;SDS011;47260;48.274;19.814;2022-08-05T09:10:05;3.05;;;2.85;;
61389;SDS011;47260;48.274;19.814;2022-08-05T09:12:32;2.92;;;2.70;;
61389;SDS011;47260;48.274;19.814;2022-08-05T09:15:00;2.83;;;2.45;;
61389;SDS011;47260;48.274;19.814;2022-08-05T09:17:27;2.40;;;2.20;;
61389;SDS011;47260;48.274;19.814;2022-08-05T09:19:56;4.53;;;2.30;;
61389;SDS011;47260;48.274;19.814;2022-08-05T09:22:24;3.15;;;2.85;;
61389;SDS011;47260;48.274;19.814;2022-08-05T09:24:57;2.63;;;2.35;;
61389;SDS011;47260;48.274;19.814;2022-08-05T09:27:29;3.72;;;2.60;;
61389;SDS011;47260;48.274;19.814;2022-08-05T09:29:58;3.20;;;2.90;;
61389;SDS011;47260;48.274;19.814;2022-08-05T09:32:32;2.95;;;2.65;;
61389;SDS011;47260;48.274;19.814;2022-08-05T09:35:01;3.15;;;2.33;;
61389;SDS011;47260;48.274;19.814;2022-08-05T09:37:36;3.08;;;2.55;;
61389;SDS011;47260;48.274;19.814;2022-08-05T09:42:37;2.85;;;2.50;;
61389;SDS011;47260;48.274;19.814;2022-08-05T09:45:05;3.10;;;2.47;;
61389;SDS011;47260;48.274;19.814;2022-08-05T09:47:33;3.58;;;2.85;;
61389;SDS011;47260;48.274;19.814;2022-08-05T09:50:00;4.05;;;2.95;;
61389;SDS011;47260;48.274;19.814;2022-08-05T09:52:28;2.72;;;2.58;;
61389;SDS011;47260;48.274;19.814;2022-08-05T09:54:58;2.58;;;2.35;;
61389;SDS011;47260;48.274;19.814;2022-08-05T09:57:30;3.97;;;2.28;;
61389;SDS011;47260;48.274;19.814;2022-08-05T10:00:04;3.30;;;3.00;;
61389;SDS011;47260;48.274;19.814;2022-08-05T10:02:35;4.90;;;2.72;;
61389;SDS011;47260;48.274;19.814;2022-08-05T10:05:06;3.00;;;2.70;;
61389;SDS011;47260;48.274;19.814;2022-08-05T10:07:45;3.70;;;3.10;;
61389;SDS011;47260;48.274;19.814;2022-08-05T10:10:19;4.72;;;2.60;;
61389;SDS011;47260;48.274;19.814;2022-08-05T10:12:47;3.22;;;2.90;;
61389;SDS011;47260;48.274;19.814;2022-08-05T10:15:17;5.60;;;3.25;;
61389;SDS011;47260;48.274;19.814;2022-08-05T10:18:00;4.60;;;2.50;;
61389;SDS011;47260;48.274;19.814;2022-08-05T10:20:39;3.25;;;2.65;;
61389;SDS011;47260;48.274;19.814;2022-08-05T10:25:36;4.55;;;2.70;;
61389;SDS011;47260;48.274;19.814;2022-08-05T10:28:04;3.80;;;3.50;;
61389;SDS011;47260;48.274;19.814;2022-08-05T10:30:32;2.83;;;2.63;;
61389;SDS011;47260;48.274;19.814;2022-08-05T10:33:00;2.80;;;2.60;;
61389;SDS011;47260;48.274;19.814;2022-08-05T10:35:27;4.25;;;3.20;;
61389;SDS011;47260;48.274;19.814;2022-08-05T10:37:54;5.05;;;2.75;;
61389;SDS011;47260;48.274;19.814;2022-08-05T10:40:25;3.10;;;2.75;;
61389;SDS011;47260;48.274;19.814;2022-08-05T10:43:00;4.72;;;3.03;;
61389;SDS011;47260;48.274;19.814;2022-08-05T10:45:32;3.53;;;2.72;;
61389;SDS011;47260;48.274;19.814;2022-08-05T10:50:58;3.72;;;2.95;;
61389;SDS011;47260;48.274;19.814;2022-08-05T10:53:36;3.00;;;2.80;;
61389;SDS011;47260;48.274;19.814;2022-08-05T10:56:06;6.07;;;3.10;;
61389;SDS011;47260;48.274;19.814;2022-08-05T10:58:37;3.10;;;2.67;;
61389;SDS011;47260;48.274;19.814;2022-08-05T11:01:13;3.25;;;2.90;;
61389;SDS011;47260;48.274;19.814;2022-08-05T11:06:30;3.70;;;3.40;;
61389;SDS011;47260;48.274;19.814;2022-08-05T11:09:09;2.92;;;2.75;;
61389;SDS011;47260;48.274;19.814;2022-08-05T11:11:37;4.25;;;3.13;;
61389;SDS011;47260;48.274;19.814;2022-08-05T11:14:07;4.30;;;2.88;;
61389;SDS011;47260;48.274;19.814;2022-08-05T11:16:36;2.92;;;2.58;;
61389;SDS011;47260;48.274;19.814;2022-08-05T11:21:53;7.65;;;2.90;;
61389;SDS011;47260;48.274;19.814;2022-08-05T11:24:20;3.75;;;3.17;;
61389;SDS011;47260;48.274;19.814;2022-08-05T11:26:48;6.43;;;3.05;;
61389;SDS011;47260;48.274;19.814;2022-08-05T11:29:35;3.25;;;3.00;;
61389;SDS011;47260;48.274;19.814;2022-08-05T11:32:22;5.22;;;2.78;;
61389;SDS011;47260;48.274;19.814;2022-08-05T11:34:51;3.42;;;3.13;;
61389;SDS011;47260;48.274;19.814;2022-08-05T11:40:07;3.00;;;2.80;;
61389;SDS011;47260;48.274;19.814;2022-08-05T11:42:34;3.08;;;2.88;;
61389;SDS011;47260;48.274;19.814;2022-08-05T11:45:07;6.55;;;2.83;;
61389;SDS011;47260;48.274;19.814;2022-08-05T11:47:34;5.47;;;3.17;;
61389;SDS011;47260;48.274;19.814;2022-08-05T11:50:02;3.20;;;2.92;;
61389;SDS011;47260;48.274;19.814;2022-08-05T11:52:29;3.97;;;3.00;;
61389;SDS011;47260;48.274;19.814;2022-08-05T11:54:56;3.55;;;3.25;;
61389;SDS011;47260;48.274;19.814;2022-08-05T11:57:26;3.50;;;2.95;;
61389;SDS011;47260;48.274;19.814;2022-08-05T11:59:54;4.25;;;3.05;;
61389;SDS011;47260;48.274;19.814;2022-08-05T12:02:26;3.67;;;2.88;;
61389;SDS011;47260;48.274;19.814;2022-08-05T12:04:56;2.90;;;2.70;;
61389;SDS011;47260;48.274;19.814;2022-08-05T12:07:23;2.63;;;2.42;;
61389;SDS011;47260;48.274;19.814;2022-08-05T12:09:51;4.40;;;2.75;;
61389;SDS011;47260;48.274;19.814;2022-08-05T12:12:22;4.25;;;3.08;;
61389;SDS011;47260;48.274;19.814;2022-08-05T12:14:49;3.63;;;3.05;;
61389;SDS011;47260;48.274;19.814;2022-08-05T12:17:16;3.05;;;2.75;;
61389;SDS011;47260;48.274;19.814;2022-08-05T12:19:46;5.38;;;3.13;;
61389;SDS011;47260;48.274;19.814;2022-08-05T12:22:15;5.07;;;3.22;;
61389;SDS011;47260;48.274;19.814;2022-08-05T12:24:43;3.50;;;3.17;;
61389;SDS011;47260;48.274;19.814;2022-08-05T12:27:18;3.45;;;2.85;;
61389;SDS011;47260;48.274;19.814;2022-08-05T12:29:45;3.28;;;2.95;;
61389;SDS011;47260;48.274;19.814;2022-08-05T12:32:12;3.17;;;2.70;;
61389;SDS011;47260;48.274;19.814;2022-08-05T12:34:39;3.95;;;3.03;;
61389;SDS011;47260;48.274;19.814;2022-08-05T12:37:08;3.33;;;3.10;;
61389;SDS011;47260;48.274;19.814;2022-08-05T12:39:38;3.00;;;2.80;;
61389;SDS011;47260;48.274;19.814;2022-08-05T12:42:09;2.88;;;2.67;;
61389;SDS011;47260;48.274;19.814;2022-08-05T12:44:37;4.20;;;3.00;;
61389;SDS011;47260;48.274;19.814;2022-08-05T12:47:04;3.35;;;3.05;;
61389;SDS011;47260;48.274;19.814;2022-08-05T12:49:38;3.33;;;3.03;;
61389;SDS011;47260;48.274;19.814;2022-08-05T12:52:11;3.30;;;3.00;;
61389;SDS011;47260;48.274;19.814;2022-08-05T12:54:39;3.20;;;3.00;;
61389;SDS011;47260;48.274;19.814;2022-08-05T12:57:08;3.17;;;2.90;;
61389;SDS011;47260;48.274;19.814;2022-08-05T12:59:43;4.75;;;2.75;;
61389;SDS011;47260;48.274;19.814;2022-08-05T13:02:14;3.33;;;3.00;;
61389;SDS011;47260;48.274;19.814;2022-08-05T13:04:42;3.05;;;2.72;;
61389;SDS011;47260;48.274;19.814;2022-08-05T13:07:12;3.45;;;2.80;;
61389;SDS011;47260;48.274;19.814;2022-08-05T13:09:47;5.38;;;3.15;;
61389;SDS011;47260;48.274;19.814;2022-08-05T13:12:15;3.55;;;2.97;;
61389;SDS011;47260;48.274;19.814;2022-08-05T13:14:43;3.63;;;3.22;;
61389;SDS011;47260;48.274;19.814;2022-08-05T13:17:15;3.90;;;2.97;;
61389;SDS011;47260;48.274;19.814;2022-08-05T13:19:56;5.10;;;3.53;;
61389;SDS011;47260;48.274;19.814;2022-08-05T13:22:25;3.40;;;3.10;;
61389;SDS011;47260;48.274;19.814;2022-08-05T13:24:52;2.83;;;2.55;;
61389;SDS011;47260;48.274;19.814;2022-08-05T13:27:25;3.35;;;2.80;;
61389;SDS011;47260;48.274;19.814;2022-08-05T13:29:53;3.08;;;2.80;;
61389;SDS011;47260;48.274;19.814;2022-08-05T13:32:20;3.53;;;3.22;;
61389;SDS011;47260;48.274;19.814;2022-08-05T13:34:47;3.72;;;2.90;;
61389;SDS011;47260;48.274;19.814;2022-08-05T13:37:15;3.17;;;2.92;;
61389;SDS011;47260;48.274;19.814;2022-08-05T13:39:43;3.58;;;3.05;;
61389;SDS011;47260;48.274;19.814;2022-08-05T13:42:10;3.47;;;2.88;;
61389;SDS011;47260;48.274;19.814;2022-08-05T13:44:37;3.38;;;3.17;;
61389;SDS011;47260;48.274;19.814;2022-08-05T13:47:04;3.70;;;3.33;;
61389;SDS011;47260;48.274;19.814;2022-08-05T13:49:31;3.15;;;2.83;;
61389;SDS011;47260;48.274;19.814;2022-08-05T13:51:59;2.92;;;2.72;;
61389;SDS011;47260;48.274;19.814;2022-08-05T13:54:35;3.42;;;3.10;;
61389;SDS011;47260;48.274;19.814;2022-08-05T13:57:03;3.00;;;2.70;;
61389;SDS011;47260;48.274;19.814;2022-08-05T13:59:30;3.20;;;3.00;;
61389;SDS011;47260;48.274;19.814;2022-08-05T14:01:57;3.35;;;3.00;;
61389;SDS011;47260;48.274;19.814;2022-08-05T14:04:24;5.57;;;2.67;;
61389;SDS011;47260;48.274;19.814;2022-08-05T14:07:12;4.35;;;3.35;;
61389;SDS011;47260;48.274;19.814;2022-08-05T14:09:39;4.13;;;3.10;;
61389;SDS011;47260;48.274;19.814;2022-08-05T14:12:07;2.97;;;2.65;;
61389;SDS011;47260;48.274;19.814;2022-08-05T14:14:34;5.78;;;3.10;;
61389;SDS011;47260;48.274;19.814;2022-08-05T14:17:01;3.28;;;2.80;;
61389;SDS011;47260;48.274;19.814;2022-08-05T14:19:29;4.10;;;3.20;;
61389;SDS011;47260;48.274;19.814;2022-08-05T14:21:56;3.05;;;2.85;;
61389;SDS011;47260;48.274;19.814;2022-08-05T14:24:23;3.65;;;2.92;;
61389;SDS011;47260;48.274;19.814;2022-08-05T14:26:49;2.95;;;2.72;;
61389;SDS011;47260;48.274;19.814;2022-08-05T14:29:18;3.05;;;2.70;;
61389;SDS011;47260;48.274;19.814;2022-08-05T14:31:45;3.45;;;2.65;;
61389;SDS011;47260;48.274;19.814;2022-08-05T14:34:11;2.80;;;2.60;;
61389;SDS011;47260;48.274;19.814;2022-08-05T14:36:38;3.50;;;3.03;;
61389;SDS011;47260;48.274;19.814;2022-08-05T14:39:05;2.97;;;2.70;;
61389;SDS011;47260;48.274;19.814;2022-08-05T14:41:32;3.13;;;2.92;;
61389;SDS011;47260;48.274;19.814;2022-08-05T14:43:59;3.30;;;3.00;;
61389;SDS011;47260;48.274;19.814;2022-08-05T14:46:28;3.38;;;2.78;;
61389;SDS011;47260;48.274;19.814;2022-08-05T14:48:55;3.25;;;3.05;;
61389;SDS011;47260;48.274;19.814;2022-08-05T14:51:23;2.90;;;2.70;;
61389;SDS011;47260;48.274;19.814;2022-08-05T14:53:50;3.60;;;2.75;;
61389;SDS011;47260;48.274;19.814;2022-08-05T14:56:17;3.70;;;2.70;;
61389;SDS011;47260;48.274;19.814;2022-08-05T14:58:44;3.05;;;2.80;;
61389;SDS011;47260;48.274;19.814;2022-08-05T15:01:10;3.45;;;2.83;;
61389;SDS011;47260;48.274;19.814;2022-08-05T15:03:39;4.25;;;2.70;;